This is the latest recevied weather packets stored in our database for station/object IW1QQG-13. If no packets are shown the sender has not sent any weather packets the latest 10 day(s).
| Time | Temp. | Humidity | Pressure | Rain* | Wind** | Luminosity | Snow |
|---|---|---|---|---|---|---|---|
| 1777641025 | 19.44° C | 56% | 1024.7 hPa | 0 mm | - | 48 W/m² | - |
| 1777640425 | 20.56° C | 53% | 1024.7 hPa | 0 mm | - | 81 W/m² | - |
| 1777639825 | 20.56° C | 54% | 1024.7 hPa | 0 mm | - | 120 W/m² | - |
| 1777639225 | 20° C | 55% | 1024.7 hPa | 0 mm | - | 136 W/m² | - |
| 1777638625 | 20° C | 56% | 1025.1 hPa | 0 mm | - | 162 W/m² | - |
| 1777638025 | 20° C | 55% | 1025.1 hPa | 0 mm | - | 157 W/m² | - |
| 1777637425 | 18.89° C | 56% | 1025.1 hPa | 0 mm | - | 327 W/m² | - |
| 1777636825 | 18.89° C | 56% | 1025.1 hPa | 0 mm | - | 156 W/m² | - |
| 1777636225 | 20° C | 54% | 1025.1 hPa | 0 mm | - | - | - |
| 1777635625 | 19.44° C | 57% | 1025.1 hPa | 0 mm | - | - | - |
| 1777635025 | 18.89° C | 56% | 1025.4 hPa | 0 mm | - | - | - |
| 1777634425 | 20° C | 53% | 1025.4 hPa | 0 mm | - | - | - |
| 1777633825 | 19.44° C | 52% | 1025.4 hPa | 0 mm | - | 227 W/m² | - |
| 1777633225 | 20° C | 52% | 1025.4 hPa | 0 mm | - | 186 W/m² | - |
| 1777632625 | 19.44° C | 56% | 1025.7 hPa | 0 mm | - | 180 W/m² | - |
| 1777632025 | 19.44° C | 53% | 1025.7 hPa | 0 mm | - | 184 W/m² | - |
| 1777631425 | 19.44° C | 53% | 1025.7 hPa | 0 mm | - | 174 W/m² | - |
| 1777630825 | 19.44° C | 52% | 1025.7 hPa | 0 mm | - | 156 W/m² | - |
| 1777630225 | 18.89° C | 54% | 1025.7 hPa | 0 mm | - | 143 W/m² | - |
| 1777629625 | 18.89° C | 53% | 1025.7 hPa | 0 mm | - | 127 W/m² | - |
| 1777629025 | 18.89° C | 54% | 1025.7 hPa | 0 mm | - | 114 W/m² | - |
| 1777628425 | 18.33° C | 56% | 1025.7 hPa | 0 mm | - | 95 W/m² | - |
| 1777627825 | 17.78° C | 55% | 1025.7 hPa | 0 mm | - | 70 W/m² | - |
| 1777627225 | 18.33° C | 54% | 1025.7 hPa | 0 mm | - | 51 W/m² | - |
| 1777626625 | 18.89° C | 55% | 1025.7 hPa | 0 mm | - | 30 W/m² | - |
* Rain latest hour (hover to see other rain measurements)
** Current wind speed in m/s (hover to see current wind gust speed)